Tinker Air Force Base Oklahoma City US
ICAO: KTIK
IATA: TIK
Category: Large
Scheduled Services: No

Elevation: 1291 ft
TransAlt. 18000 ft.

Airport Communications:
OKE CITY APP/DEP:26.68
OKE CITY APP/DEP:120.45
ATIS:27.01
CLNC DEL:119.7
GND:121.8
ATOC:119.15
AFMC FLT TEST:38.26
PMSV METRO:26.102
507 ARW:22.845
ACC COMD POST:141.65
PTD:134.1
SFA:35.412
TWR:124.45

KTIK Zoom In..

Runways:

(A) RW 13 length 10000 ft width 200 ft
LOC 111.70 / hdg 126

(B) RW 18 length 11101 ft width 200 ft
ILS 111.30 / hdg 175

(C) RW 31 length 10000 ft width 200 ft
LOC 111.70 / hdg 306

(D) RW 36 length 11101 ft width 200 ft
ILS 109.50 / hdg 355

Location; KTIK
Day. 20 / Time. 19.56 Zulu
* Altimeter: 29.85
* Temperature: 42° c. 107.6°f.
* Wind from: KTI° Speed K kn.
Dewpoint: 14° c.
Visibility: 10 Statute Miles.
Clouds: Clear (automated report).

KTIK 201956Z AUTO 23016G23KT 10SM CLR 42/14 A2985 RMK AO2 SLP095 T04190135


Wind From KTI°
Speed K kn.

 
 
jpsmedia.com for Web Design worldairports.se 2018   terms of use